Time;durP1;ratioP1;P1;durP2;ratioP2;P2;SDS_P1;SDS_P2;PMS_P1;PMS_P2;Temp;Humidity;BMP_temperature;BMP_pressure;BME280_temperature;BME280_humidity;BME280_pressure;Samples;Min_cycle;Max_cycle;Signal;HPM_P1;HPM_P2
2022/11/10 00:03:14;;;;;;;;;;;;;;;;;;10590270;28;19928;-68
2022/11/10 00:08:16;;;;;;;;;;;;;;;;;;10590297;28;19973;-68
2022/11/10 00:13:18;;;;;;;;;;;;;;;;;;10589256;28;20286;-68
2022/11/10 00:18:20;;;;;;;;;;;;;;;;;;10589122;28;20434;-68
2022/11/10 00:23:22;;;;;;;;;;;;;;;;;;10589528;28;19953;-68
2022/11/10 00:28:24;;;;;;;;;;;;;;;;;;10571284;28;20027;-68
2022/11/10 00:33:26;;;;;;;;;;;;;;;;;;10588808;28;19960;-68
2022/11/10 00:38:28;;;;;;;;;;;;;;;;;;10589003;28;19953;-69
2022/11/10 00:43:30;;;;;;;;;;;;;;;;;;10588430;28;20381;-68
2022/11/10 00:48:33;;;;;;;;;;;;;;;;;;10588097;28;20259;-69
2022/11/10 00:53:35;;;;;;;;;;;;;;;;;;10587693;28;19927;-69
2022/11/10 00:58:37;;;;;;;;;;;;;;;;;;10588148;28;19927;-69
2022/11/10 01:03:39;;;;;;;;;;;;;;;;;;10587863;28;19924;-69
2022/11/10 01:08:41;;;;;;;;;;;;;;;;;;10587160;28;20391;-69
2022/11/10 01:13:43;;;;;;;;;;;;;;;;;;10587683;28;19924;-69
2022/11/10 01:18:45;;;;;;;;;;;;;;;;;;10587347;28;19957;-69
2022/11/10 01:23:47;;;;;;;;;;;;;;;;;;10586468;28;20336;-69
2022/11/10 01:28:50;;;;;;;;;;;;;;;;;;10586849;28;20251;-69
2022/11/10 01:33:52;;;;;;;;;;;;;;;;;;10586326;28;19969;-69
2022/11/10 01:38:54;;;;;;;;;;;;;;;;;;10586577;28;19924;-69
2022/11/10 01:43:56;;;;;;;;;;;;;;;;;;10585638;28;20394;-69
2022/11/10 01:48:58;;;;;;;;;;;;;;;;;;10568080;28;19969;-69
2022/11/10 01:54:00;;;;;;;;;;;;;;;;;;10585921;28;19977;-69
2022/11/10 01:59:02;;;;;;;;;;;;;;;;;;10585751;28;19928;-69
2022/11/10 02:04:04;;;;;;;;;;;;;;;;;;10584916;28;20439;-69
2022/11/10 02:09:06;;;;;;;;;;;;;;;;;;10584862;28;19928;-69
2022/11/10 02:14:08;;;;;;;;;;;;;;;;;;10585136;28;19923;-69
2022/11/10 02:19:10;;;;;;;;;;;;;;;;;;10584974;28;19924;-69
2022/11/10 02:24:12;;;;;;;;;;;;;;;;;;10583997;28;20432;-69
2022/11/10 02:29:14;;;;;;;;;;;;;;;;;;10584526;28;19953;-69
2022/11/10 02:34:16;;;;;;;;;;;;;;;;;;10583874;28;19949;-69
2022/11/10 02:39:18;;;;;;;;;;;;;;;;;;10583486;28;20443;-69
2022/11/10 02:44:20;;;;;;;;;;;;;;;;;;10583881;28;19924;-69
2022/11/10 02:49:22;;;;;;;;;;;;;;;;;;10583776;28;19976;-69
2022/11/10 02:54:24;;;;;;;;;;;;;;;;;;10583580;28;19973;-69
2022/11/10 02:59:27;;;;;;;;;;;;;;;;;;10583152;28;19928;-69
2022/11/10 03:04:29;;;;;;;;;;;;;;;;;;10582573;28;19924;-69
2022/11/10 03:09:31;;;;;;;;;;;;;;;;;;10583348;28;19969;-69
2022/11/10 03:14:33;;;;;;;;;;;;;;;;;;10583215;28;19924;-69
2022/11/10 03:19:35;;;;;;;;;;;;;;;;;;10581914;28;20324;-69
2022/11/10 03:24:37;;;;;;;;;;;;;;;;;;10582054;28;19932;-68
2022/11/10 03:29:39;;;;;;;;;;;;;;;;;;10582667;28;19924;-69
2022/11/10 03:34:41;;;;;;;;;;;;;;;;;;10582371;28;19969;-69
2022/11/10 03:39:43;;;;;;;;;;;;;;;;;;10581843;28;20366;-69
2022/11/10 03:44:45;;;;;;;;;;;;;;;;;;10581531;28;19976;-69
2022/11/10 03:49:47;;;;;;;;;;;;;;;;;;10582256;28;19973;-69
2022/11/10 03:54:49;;;;;;;;;;;;;;;;;;10581525;28;19992;-69
2022/11/10 03:59:51;;;;;;;;;;;;;;;;;;10582081;28;19973;-69
2022/11/10 04:10:18;;;;;;;;;;;;;;;;;;10553216;28;19923;-69
2022/11/10 04:20:41;;;;;;;;;;;;;;;;;;10581000;28;19924;-69
2022/11/10 04:26:27;;;;;;;;;;;;;;;;;;10562957;28;19924;-69
2022/11/10 04:31:06;;;;;;;;;;;;;;;;;;10585762;28;19969;-69
2022/11/10 04:36:08;;;;;;;;;;;;;;;;;;10588406;28;19924;-69
2022/11/10 04:41:10;;;;;;;;;;;;;;;;;;10588831;28;19969;-69
2022/11/10 04:46:12;;;;;;;;;;;;;;;;;;10588670;28;20298;-69
2022/11/10 04:51:14;;;;;;;;;;;;;;;;;;10588581;28;19977;-69
2022/11/10 04:56:16;;;;;;;;;;;;;;;;;;10588373;28;20023;-69
2022/11/10 05:01:18;;;;;;;;;;;;;;;;;;10587463;28;19971;-69
2022/11/10 05:06:20;;;;;;;;;;;;;;;;;;10587311;28;19946;-69
2022/11/10 05:11:22;;;;;;;;;;;;;;;;;;10587140;28;20069;-69
2022/11/10 05:16:24;;;;;;;;;;;;;;;;;;10587485;28;19924;-69
2022/11/10 05:21:26;;;;;;;;;;;;;;;;;;10587677;28;19989;-69
2022/11/10 05:26:28;;;;;;;;;;;;;;;;;;10586475;28;20332;-69
2022/11/10 05:31:31;;;;;;;;;;;;;;;;;;10587127;28;19970;-69
2022/11/10 05:36:33;;;;;;;;;;;;;;;;;;10586661;28;19974;-69
2022/11/10 05:41:35;;;;;;;;;;;;;;;;;;10584914;28;19973;-69
2022/11/10 05:46:37;;;;;;;;;;;;;;;;;;10586279;28;19974;-70
2022/11/10 05:51:39;;;;;;;;;;;;;;;;;;10586107;28;19928;-69
2022/11/10 05:56:41;;;;;;;;;;;;;;;;;;10585278;28;20493;-69
2022/11/10 06:01:43;;;;;;;;;;;;;;;;;;10585649;28;19924;-70
2022/11/10 06:06:45;;;;;;;;;;;;;;;;;;10585560;28;19924;-70
2022/11/10 06:11:48;;;;;;;;;;;;;;;;;;10585245;28;19927;-70
2022/11/10 06:16:50;;;;;;;;;;;;;;;;;;10585091;28;20006;-69
2022/11/10 06:21:52;;;;;;;;;;;;;;;;;;10584827;28;19924;-70
2022/11/10 06:27:01;;;;;;;;;;;;;;;;;;10584679;28;19930;-70
2022/11/10 06:32:03;;;;;;;;;;;;;;;;;;10585033;28;19928;-70
2022/11/10 06:37:05;;;;;;;;;;;;;;;;;;10584027;28;19924;-70
2022/11/10 06:42:07;;;;;;;;;;;;;;;;;;10584024;28;19927;-70
2022/11/10 06:47:09;;;;;;;;;;;;;;;;;;10583838;28;19923;-70
2022/11/10 06:52:11;;;;;;;;;;;;;;;;;;10582948;28;19924;-70
2022/11/10 06:57:13;;;;;;;;;;;;;;;;;;10582901;28;19924;-70
2022/11/10 07:02:15;;;;;;;;;;;;;;;;;;10583317;28;19972;-70
2022/11/10 07:07:17;;;;;;;;;;;;;;;;;;10583247;28;19927;-70
2022/11/10 07:12:19;;;;;;;;;;;;;;;;;;10582426;28;19969;-70
2022/11/10 07:17:22;;;;;;;;;;;;;;;;;;10582918;28;19924;-70
2022/11/10 07:22:24;;;;;;;;;;;;;;;;;;10582744;28;19924;-69
2022/11/10 07:27:26;;;;;;;;;;;;;;;;;;10582272;28;19924;-69
2022/11/10 07:32:28;;;;;;;;;;;;;;;;;;10582317;28;19977;-69
2022/11/10 07:37:30;;;;;;;;;;;;;;;;;;10582531;28;19924;-69
2022/11/10 07:42:32;;;;;;;;;;;;;;;;;;10582354;28;19928;-69
2022/11/10 07:47:34;;;;;;;;;;;;;;;;;;10581751;28;19928;-69
2022/11/10 07:52:36;;;;;;;;;;;;;;;;;;10582444;28;19924;-69
2022/11/10 07:57:38;;;;;;;;;;;;;;;;;;10582172;28;19957;-69
2022/11/10 08:02:40;;;;;;;;;;;;;;;;;;10582010;28;19931;-69
2022/11/10 08:07:42;;;;;;;;;;;;;;;;;;10589342;28;19953;-69
2022/11/10 08:12:44;;;;;;;;;;;;;;;;;;10589721;28;20336;-69
2022/11/10 08:17:46;;;;;;;;;;;;;;;;;;10589934;28;19924;-68
2022/11/10 08:22:48;;;;;;;;;;;;;;;;;;10589025;28;20378;-67
2022/11/10 08:27:50;;;;;;;;;;;;;;;;;;10589537;28;19973;-70
2022/11/10 08:32:52;;;;;;;;;;;;;;;;;;10589149;28;19969;-70
2022/11/10 08:37:55;;;;;;;;;;;;;;;;;;10588523;28;20324;-69
2022/11/10 08:42:57;;;;;;;;;;;;;;;;;;10588797;28;19969;-70
2022/11/10 08:47:59;;;;;;;;;;;;;;;;;;10588068;28;20264;-69
2022/11/10 08:53:01;;;;;;;;;;;;;;;;;;10587868;28;20324;-69
2022/11/10 08:58:03;;;;;;;;;;;;;;;;;;10569818;28;20367;-69
2022/11/10 09:03:05;;;;;;;;;;;;;;;;;;10586403;28;20332;-70
2022/11/10 09:08:08;;;;;;;;;;;;;;;;;;10586500;28;19935;-70
2022/11/10 09:13:10;;;;;;;;;;;;;;;;;;10586982;28;20444;-70
2022/11/10 09:18:12;;;;;;;;;;;;;;;;;;10585778;28;19924;-69
2022/11/10 09:23:14;;;;;;;;;;;;;;;;;;10586508;28;20317;-69
2022/11/10 09:28:16;;;;;;;;;;;;;;;;;;10586946;28;19953;-69
2022/11/10 09:33:18;;;;;;;;;;;;;;;;;;10586712;28;19928;-70
2022/11/10 09:38:21;;;;;;;;;;;;;;;;;;10585891;28;20320;-69
2022/11/10 09:43:23;;;;;;;;;;;;;;;;;;10586072;28;19924;-70
2022/11/10 09:48:25;;;;;;;;;;;;;;;;;;10586300;28;19931;-69
2022/11/10 09:53:28;;;;;;;;;;;;;;;;;;10585150;28;19931;-69
2022/11/10 09:58:30;;;;;;;;;;;;;;;;;;10585769;28;19924;-69
2022/11/10 10:03:32;;;;;;;;;;;;;;;;;;10585626;28;19954;-69
2022/11/10 10:08:34;;;;;;;;;;;;;;;;;;10584420;28;19961;-69
2022/11/10 10:13:37;;;;;;;;;;;;;;;;;;10584548;28;19992;-69
2022/11/10 10:18:39;;;;;;;;;;;;;;;;;;10566691;28;19973;-69
2022/11/10 10:23:41;;;;;;;;;;;;;;;;;;10583884;28;19928;-69
2022/11/10 10:29:03;;;;;;;;;;;;;;;;;;10583522;28;19981;-69
2022/11/10 10:34:05;;;;;;;;;;;;;;;;;;10583905;28;19976;-68
2022/11/10 10:39:07;;;;;;;;;;;;;;;;;;10583501;28;20333;-69
2022/11/10 10:44:09;;;;;;;;;;;;;;;;;;10583065;28;19988;-68
2022/11/10 10:49:12;;;;;;;;;;;;;;;;;;10589487;22;19977;-62
2022/11/10 10:54:29;;;;;;;;;;;;;;;;;;10582836;28;20022;-62
2022/11/10 10:59:31;;;;;;;;;;;;;;;;;;10583570;28;19954;-62
2022/11/10 11:04:33;;;;;;;;;;;;;;;;;;10565694;28;19973;-62
2022/11/10 11:09:35;;;;;;;;;;;;;;;;;;10583032;28;19928;-62
2022/11/10 11:14:37;;;;;;;;;;;;;;;;;;10582456;28;20259;-62
2022/11/10 11:19:45;;;;;;;;;;;;;;;;;;10583037;28;19924;-62
2022/11/10 11:24:47;;;;;;;;;;;;;;;;;;10583247;28;19928;-62
2022/11/10 11:29:49;;;;;;;;;;;;;;;;;;10582924;28;19951;-62
2022/11/10 11:34:52;;;;;;;;;;;;;;;;;;10582553;28;19973;-62
2022/11/10 11:39:54;;;;;;;;;;;;;;;;;;10585934;28;19923;-62
2022/11/10 11:44:56;;;;;;;;;;;;;;;;;;10590498;28;20320;-62
2022/11/10 11:49:58;;;;;;;;;;;;;;;;;;10590643;28;19927;-62
2022/11/10 11:55:00;;;;;;;;;;;;;;;;;;10590716;28;19977;-62
2022/11/10 12:00:02;;;;;;;;;;;;;;;;;;10590124;28;20032;-62
2022/11/10 12:05:04;;;;;;;;;;;;;;;;;;10590377;28;19927;-62
2022/11/10 12:10:06;;;;;;;;;;;;;;;;;;10589537;28;19976;-62
2022/11/10 12:15:08;;;;;;;;;;;;;;;;;;10590134;28;19923;-62
2022/11/10 12:20:10;;;;;;;;;;;;;;;;;;10589744;28;20290;-62
2022/11/10 12:25:12;;;;;;;;;;;;;;;;;;10589642;28;19928;-62
2022/11/10 12:30:14;;;;;;;;;;;;;;;;;;10588845;28;20271;-62
2022/11/10 12:35:16;;;;;;;;;;;;;;;;;;10589172;28;19931;-62
2022/11/10 12:40:18;;;;;;;;;;;;;;;;;;10588504;28;19924;-62
2022/11/10 12:45:20;;;;;;;;;;;;;;;;;;10588809;28;19977;-62
2022/11/10 12:50:22;;;;;;;;;;;;;;;;;;10588264;28;19924;-62
2022/11/10 12:55:25;;;;;;;;;;;;;;;;;;10588578;28;19924;-62
2022/11/10 13:00:27;;;;;;;;;;;;;;;;;;10587220;28;19977;-62
2022/11/10 13:05:29;;;;;;;;;;;;;;;;;;10587887;28;20014;-62
2022/11/10 13:10:31;;;;;;;;;;;;;;;;;;10586971;28;19976;-62
2022/11/10 13:15:34;;;;;;;;;;;;;;;;;;10587261;28;19928;-62
2022/11/10 13:20:36;;;;;;;;;;;;;;;;;;10586776;28;19928;-62
2022/11/10 13:25:38;;;;;;;;;;;;;;;;;;10586937;28;19924;-62
2022/11/10 13:30:40;;;;;;;;;;;;;;;;;;10586993;28;19928;-62
2022/11/10 13:35:42;;;;;;;;;;;;;;;;;;10586540;28;19924;-62
2022/11/10 13:40:44;;;;;;;;;;;;;;;;;;10586681;28;19931;-62
2022/11/10 13:45:46;;;;;;;;;;;;;;;;;;10569330;28;19931;-62
2022/11/10 13:50:48;;;;;;;;;;;;;;;;;;10542227;28;19924;-62
2022/11/10 13:55:50;;;;;;;;;;;;;;;;;;10543442;28;19928;-62
2022/11/10 14:00:52;;;;;;;;;;;;;;;;;;10541941;28;19928;-62
2022/11/10 14:05:54;;;;;;;;;;;;;;;;;;10542767;28;19970;-62
2022/11/10 14:10:56;;;;;;;;;;;;;;;;;;10542625;28;20432;-62
2022/11/10 14:15:58;;;;;;;;;;;;;;;;;;10542726;28;19924;-62
2022/11/10 14:21:01;;;;;;;;;;;;;;;;;;10542243;28;20317;-62
2022/11/10 14:26:03;;;;;;;;;;;;;;;;;;10542332;28;19924;-62
2022/11/10 14:31:05;;;;;;;;;;;;;;;;;;10542446;28;19924;-62
2022/11/10 14:36:07;;;;;;;;;;;;;;;;;;10541437;28;19928;-62
2022/11/10 14:41:09;;;;;;;;;;;;;;;;;;10541456;28;19927;-62
2022/11/10 14:46:11;;;;;;;;;;;;;;;;;;10541815;28;19924;-62
2022/11/10 14:51:14;;;;;;;;;;;;;;;;;;10542081;28;19924;-62
2022/11/10 14:56:16;;;;;;;;;;;;;;;;;;10564773;28;19927;-62
2022/11/10 15:01:18;;;;;;;;;;;;;;;;;;10583185;28;20036;-62
2022/11/10 15:06:20;;;;;;;;;;;;;;;;;;10582679;28;20271;-62
2022/11/10 15:11:22;;;;;;;;;;;;;;;;;;10582621;28;19923;-62
2022/11/10 15:16:24;;;;;;;;;;;;;;;;;;10583220;28;19969;-62
2022/11/10 15:21:26;;;;;;;;;;;;;;;;;;10582340;28;20378;-62
2022/11/10 15:26:28;;;;;;;;;;;;;;;;;;10582467;28;19924;-62
2022/11/10 15:31:31;;;;;;;;;;;;;;;;;;10582577;28;20424;-62
2022/11/10 15:36:33;;;;;;;;;;;;;;;;;;10581755;28;19985;-62
2022/11/10 15:41:35;;;;;;;;;;;;;;;;;;10582532;28;19969;-62
2022/11/10 15:46:37;;;;;;;;;;;;;;;;;;10582023;28;20317;-63
2022/11/10 15:51:39;;;;;;;;;;;;;;;;;;10581458;28;20275;-62
2022/11/10 15:56:41;;;;;;;;;;;;;;;;;;10582220;28;19924;-62
2022/11/10 16:01:43;;;;;;;;;;;;;;;;;;10581140;28;19924;-62
2022/11/10 16:06:46;;;;;;;;;;;;;;;;;;10581236;28;19967;-62
2022/11/10 16:11:48;;;;;;;;;;;;;;;;;;10581929;28;19931;-62
2022/11/10 16:16:50;;;;;;;;;;;;;;;;;;10581473;28;19928;-62
2022/11/10 16:21:53;;;;;;;;;;;;;;;;;;10580986;28;20324;-62
2022/11/10 16:26:55;;;;;;;;;;;;;;;;;;10586148;28;19949;-62
2022/11/10 16:31:57;;;;;;;;;;;;;;;;;;10589424;28;19924;-62
2022/11/10 16:36:59;;;;;;;;;;;;;;;;;;10588686;28;19924;-62
2022/11/10 16:42:01;;;;;;;;;;;;;;;;;;10588665;28;19947;-62
2022/11/10 16:47:03;;;;;;;;;;;;;;;;;;10587891;28;19982;-62
2022/11/10 16:52:05;;;;;;;;;;;;;;;;;;10588133;28;19928;-62
2022/11/10 16:57:07;;;;;;;;;;;;;;;;;;10587888;28;20263;-62
2022/11/10 17:02:09;;;;;;;;;;;;;;;;;;10588288;28;19976;-62
2022/11/10 17:07:11;;;;;;;;;;;;;;;;;;10588175;28;19977;-63
2022/11/10 17:12:13;;;;;;;;;;;;;;;;;;10587934;28;20019;-62
2022/11/10 17:17:17;;;;;;;;;;;;;;;;;;10587737;28;19981;-62
2022/11/10 17:22:19;;;;;;;;;;;;;;;;;;10587514;28;19953;-62
2022/11/10 17:27:22;;;;;;;;;;;;;;;;;;10584895;28;19980;-62
2022/11/10 17:32:24;;;;;;;;;;;;;;;;;;10587089;28;19927;-62
2022/11/10 17:37:46;;;;;;;;;;;;;;;;;;10585500;28;19963;-62
2022/11/10 17:42:48;;;;;;;;;;;;;;;;;;10586448;28;19924;-62
2022/11/10 17:47:50;;;;;;;;;;;;;;;;;;10585430;28;19928;-62
2022/11/10 17:52:52;;;;;;;;;;;;;;;;;;10584181;28;19924;-62
2022/11/10 17:57:56;;;;;;;;;;;;;;;;;;10583980;28;19924;-62
2022/11/10 18:02:58;;;;;;;;;;;;;;;;;;10570360;28;19924;-62
2022/11/10 18:08:00;;;;;;;;;;;;;;;;;;10534620;28;19973;-62
2022/11/10 18:13:02;;;;;;;;;;;;;;;;;;10540184;28;19973;-62
2022/11/10 18:18:04;;;;;;;;;;;;;;;;;;10541349;28;19928;-62
2022/11/10 18:23:11;;;;;;;;;;;;;;;;;;10540231;28;20152;-62
2022/11/10 18:28:13;;;;;;;;;;;;;;;;;;10541388;28;19924;-62
2022/11/10 18:33:15;;;;;;;;;;;;;;;;;;10541266;28;19977;-62
2022/11/10 18:38:17;;;;;;;;;;;;;;;;;;10539645;28;19990;-62
2022/11/10 18:43:19;;;;;;;;;;;;;;;;;;10539897;28;19974;-61
2022/11/10 18:48:21;;;;;;;;;;;;;;;;;;10477186;28;1770403;-62
2022/11/10 18:53:30;;;;;;;;;;;;;;;;;;10541151;28;19924;-62
2022/11/10 18:58:38;;;;;;;;;;;;;;;;;;10540962;28;20370;-62
2022/11/10 19:03:41;;;;;;;;;;;;;;;;;;10541086;28;19928;-62
2022/11/10 19:08:43;;;;;;;;;;;;;;;;;;10540604;28;19924;-62
2022/11/10 19:13:45;;;;;;;;;;;;;;;;;;10540120;28;20325;-62
2022/11/10 19:18:47;;;;;;;;;;;;;;;;;;10540331;28;19924;-62
2022/11/10 19:23:49;;;;;;;;;;;;;;;;;;10539830;28;20489;-62
2022/11/10 19:28:52;;;;;;;;;;;;;;;;;;10540628;28;19937;-62
2022/11/10 19:33:54;;;;;;;;;;;;;;;;;;10541035;28;19967;-62
2022/11/10 19:38:56;;;;;;;;;;;;;;;;;;10540207;28;19978;-62
2022/11/10 19:43:58;;;;;;;;;;;;;;;;;;10539608;28;19924;-62
2022/11/10 19:49:00;;;;;;;;;;;;;;;;;;10539563;28;19973;-62
2022/11/10 19:54:04;;;;;;;;;;;;;;;;;;10540010;28;20248;-62
2022/11/10 19:59:08;;;;;;;;;;;;;;;;;;10540727;28;19924;-62
2022/11/10 20:04:11;;;;;;;;;;;;;;;;;;10530388;28;19982;-62
2022/11/10 20:09:13;;;;;;;;;;;;;;;;;;10547664;28;19924;-63
2022/11/10 20:14:15;;;;;;;;;;;;;;;;;;10547744;28;19935;-63
2022/11/10 20:19:17;;;;;;;;;;;;;;;;;;10547235;28;20358;-63
2022/11/10 20:24:19;;;;;;;;;;;;;;;;;;10546962;28;19990;-63
2022/11/10 20:29:21;;;;;;;;;;;;;;;;;;10546575;28;19954;-63
2022/11/10 20:34:23;;;;;;;;;;;;;;;;;;10547606;28;19924;-63
2022/11/10 20:39:25;;;;;;;;;;;;;;;;;;10546459;28;20329;-63
2022/11/10 20:44:27;;;;;;;;;;;;;;;;;;10546160;28;20314;-63
2022/11/10 20:49:29;;;;;;;;;;;;;;;;;;10545860;28;20311;-63
2022/11/10 20:54:32;;;;;;;;;;;;;;;;;;10528557;28;19928;-63
2022/11/10 20:59:34;;;;;;;;;;;;;;;;;;10546269;28;19924;-63
2022/11/10 21:04:36;;;;;;;;;;;;;;;;;;10527517;28;20276;-63
2022/11/10 21:09:43;;;;;;;;;;;;;;;;;;10545890;28;19924;-63
2022/11/10 21:14:45;;;;;;;;;;;;;;;;;;10545533;28;19978;-63
2022/11/10 21:19:47;;;;;;;;;;;;;;;;;;10545187;28;20333;-63
2022/11/10 21:24:50;;;;;;;;;;;;;;;;;;10545162;28;19932;-63
2022/11/10 21:29:52;;;;;;;;;;;;;;;;;;10544814;28;20279;-63
2022/11/10 21:34:54;;;;;;;;;;;;;;;;;;10544869;28;19928;-63
2022/11/10 21:39:56;;;;;;;;;;;;;;;;;;10544046;28;19928;-63
2022/11/10 21:44:58;;;;;;;;;;;;;;;;;;10544390;28;19924;-63
2022/11/10 21:50:00;;;;;;;;;;;;;;;;;;10543583;28;20383;-63
2022/11/10 21:55:02;;;;;;;;;;;;;;;;;;10542453;28;19986;-63
2022/11/10 22:00:04;;;;;;;;;;;;;;;;;;10543572;28;19924;-63
2022/11/10 22:05:06;;;;;;;;;;;;;;;;;;10543547;28;19973;-63
2022/11/10 22:20:50;;;;;;;;;;;;;;;;;;10542401;28;20000;-63
2022/11/10 22:25:52;;;;;;;;;;;;;;;;;;10541917;28;20367;-63
2022/11/10 22:30:54;;;;;;;;;;;;;;;;;;10542647;28;19970;-63
2022/11/10 22:35:56;;;;;;;;;;;;;;;;;;10542035;28;20432;-63
2022/11/10 22:46:19;;;;;;;;;;;;;;;;;;10541261;28;19973;-63
2022/11/10 22:51:21;;;;;;;;;;;;;;;;;;10541431;28;19977;-63
2022/11/10 22:56:24;;;;;;;;;;;;;;;;;;10541074;28;20375;-63
2022/11/10 23:01:26;;;;;;;;;;;;;;;;;;10554381;22;19946;-67
2022/11/10 23:06:28;;;;;;;;;;;;;;;;;;10582899;28;20281;-68
2022/11/10 23:11:30;;;;;;;;;;;;;;;;;;10583377;28;19927;-68
2022/11/10 23:16:32;;;;;;;;;;;;;;;;;;10582579;28;20274;-67
2022/11/10 23:21:34;;;;;;;;;;;;;;;;;;10582458;28;20340;-68
2022/11/10 23:26:36;;;;;;;;;;;;;;;;;;10582869;28;19924;-68
2022/11/10 23:31:38;;;;;;;;;;;;;;;;;;10564141;28;19924;-68
2022/11/10 23:36:40;;;;;;;;;;;;;;;;;;10582356;28;19965;-68
2022/11/10 23:41:43;;;;;;;;;;;;;;;;;;10583105;28;19969;-68
2022/11/10 23:46:45;;;;;;;;;;;;;;;;;;10582335;28;19923;-68
2022/11/10 23:51:47;;;;;;;;;;;;;;;;;;10582389;28;19928;-68
2022/11/10 23:56:49;;;;;;;;;;;;;;;;;;10582299;28;19924;-68
